sensor_id;sensor_type;location;lat;lon;timestamp;pressure;altitude;pressure_sealevel;temperature;humidity
77250;BME280;66287;42.658;27.568;2023-03-26T00:01:55;99327.28;;;14.71;55.34
77250;BME280;66287;42.658;27.568;2023-03-26T00:04:22;99315.56;;;14.71;55.83
77250;BME280;66287;42.658;27.568;2023-03-26T00:06:49;99292.91;;;14.70;55.99
77250;BME280;66287;42.658;27.568;2023-03-26T00:09:15;99301.34;;;14.69;56.30
77250;BME280;66287;42.658;27.568;2023-03-26T00:11:41;99305.97;;;14.68;55.99
77250;BME280;66287;42.658;27.568;2023-03-26T00:14:07;99295.31;;;14.67;56.60
77250;BME280;66287;42.658;27.568;2023-03-26T00:16:33;99290.34;;;14.64;56.44
77250;BME280;66287;42.658;27.568;2023-03-26T00:18:59;99301.28;;;14.64;56.78
77250;BME280;66287;42.658;27.568;2023-03-26T00:21:26;99315.97;;;14.63;56.60
77250;BME280;66287;42.658;27.568;2023-03-26T00:23:56;99338.88;;;14.62;56.55
77250;BME280;66287;42.658;27.568;2023-03-26T00:26:24;99321.69;;;14.61;56.54
77250;BME280;66287;42.658;27.568;2023-03-26T00:28:49;99292.22;;;14.58;56.86
77250;BME280;66287;42.658;27.568;2023-03-26T00:31:16;99291.63;;;14.56;56.83
77250;BME280;66287;42.658;27.568;2023-03-26T00:33:42;99276.34;;;14.55;57.60
77250;BME280;66287;42.658;27.568;2023-03-26T00:36:12;99312.28;;;14.52;57.13
77250;BME280;66287;42.658;27.568;2023-03-26T00:38:42;99325.09;;;14.52;57.35
77250;BME280;66287;42.658;27.568;2023-03-26T00:41:10;99307.34;;;14.49;57.95
77250;BME280;66287;42.658;27.568;2023-03-26T00:43:51;99304.84;;;14.47;57.72
77250;BME280;66287;42.658;27.568;2023-03-26T00:46:18;99310.31;;;14.47;58.72
77250;BME280;66287;42.658;27.568;2023-03-26T00:48:44;99334.25;;;14.45;58.62
77250;BME280;66287;42.658;27.568;2023-03-26T00:51:10;99343.53;;;14.44;58.32
77250;BME280;66287;42.658;27.568;2023-03-26T00:53:36;99329.06;;;14.44;58.33
77250;BME280;66287;42.658;27.568;2023-03-26T00:56:03;99337.72;;;14.41;58.38
77250;BME280;66287;42.658;27.568;2023-03-26T00:58:29;99336.06;;;14.40;58.07
77250;BME280;66287;42.658;27.568;2023-03-26T01:00:55;99334.41;;;14.39;58.50
77250;BME280;66287;42.658;27.568;2023-03-26T01:03:25;99325.16;;;14.40;58.36
77250;BME280;66287;42.658;27.568;2023-03-26T01:05:56;99318.88;;;14.39;58.21
77250;BME280;66287;42.658;27.568;2023-03-26T01:10:48;99317.25;;;14.38;58.66
77250;BME280;66287;42.658;27.568;2023-03-26T01:13:18;99307.66;;;14.36;58.56
77250;BME280;66287;42.658;27.568;2023-03-26T01:15:44;99298.91;;;14.34;59.14
77250;BME280;66287;42.658;27.568;2023-03-26T01:18:21;99295.59;;;14.32;58.61
77250;BME280;66287;42.658;27.568;2023-03-26T01:20:51;99280.56;;;14.29;59.13
77250;BME280;66287;42.658;27.568;2023-03-26T01:23:25;99275.03;;;14.24;58.75
77250;BME280;66287;42.658;27.568;2023-03-26T01:25:58;99278.00;;;14.23;59.16
77250;BME280;66287;42.658;27.568;2023-03-26T01:28:26;99270.31;;;14.20;58.86
77250;BME280;66287;42.658;27.568;2023-03-26T01:30:56;99277.41;;;14.21;58.94
77250;BME280;66287;42.658;27.568;2023-03-26T01:36:12;99270.03;;;14.16;59.12
77250;BME280;66287;42.658;27.568;2023-03-26T01:44:22;99279.28;;;14.15;59.68
77250;BME280;66287;42.658;27.568;2023-03-26T01:46:50;99290.41;;;14.13;59.95
77250;BME280;66287;42.658;27.568;2023-03-26T01:49:16;99289.34;;;14.14;59.53
77250;BME280;66287;42.658;27.568;2023-03-26T01:51:42;99302.97;;;14.14;59.56
77250;BME280;66287;42.658;27.568;2023-03-26T01:54:08;99302.38;;;14.12;59.51
77250;BME280;66287;42.658;27.568;2023-03-26T01:56:37;99300.25;;;14.14;59.27
77250;BME280;66287;42.658;27.568;2023-03-26T02:01:56;99305.34;;;14.11;59.49
77250;BME280;66287;42.658;27.568;2023-03-26T02:07:13;99298.75;;;14.07;59.83
77250;BME280;66287;42.658;27.568;2023-03-26T02:09:47;99300.63;;;14.06;59.92
77250;BME280;66287;42.658;27.568;2023-03-26T02:12:14;99301.97;;;14.04;60.35
77250;BME280;66287;42.658;27.568;2023-03-26T02:14:40;99314.75;;;14.03;60.38
77250;BME280;66287;42.658;27.568;2023-03-26T02:17:07;99306.56;;;14.03;60.19
77250;BME280;66287;42.658;27.568;2023-03-26T02:19:34;99311.44;;;14.01;60.68
77250;BME280;66287;42.658;27.568;2023-03-26T02:21:59;99309.78;;;14.00;59.88
77250;BME280;66287;42.658;27.568;2023-03-26T02:24:28;99319.03;;;13.99;60.22
77250;BME280;66287;42.658;27.568;2023-03-26T02:26:56;99321.75;;;13.99;60.66
77250;BME280;66287;42.658;27.568;2023-03-26T02:29:26;99324.47;;;13.99;60.31
77250;BME280;66287;42.658;27.568;2023-03-26T02:31:52;99317.13;;;14.00;60.63
77250;BME280;66287;42.658;27.568;2023-03-26T02:34:18;99329.44;;;14.02;60.35
77250;BME280;66287;42.658;27.568;2023-03-26T02:36:51;99326.13;;;14.00;60.53
77250;BME280;66287;42.658;27.568;2023-03-26T02:39:17;99316.06;;;14.01;59.89
77250;BME280;66287;42.658;27.568;2023-03-26T02:41:50;99313.09;;;14.02;60.27
77250;BME280;66287;42.658;27.568;2023-03-26T02:44:15;99313.69;;;14.04;59.94
77250;BME280;66287;42.658;27.568;2023-03-26T02:47:07;99312.38;;;14.07;60.48
77250;BME280;66287;42.658;27.568;2023-03-26T02:49:35;99315.44;;;14.10;59.80
77250;BME280;66287;42.658;27.568;2023-03-26T02:52:01;99311.63;;;14.11;60.25
77250;BME280;66287;42.658;27.568;2023-03-26T02:54:31;99309.97;;;14.10;60.58
77250;BME280;66287;42.658;27.568;2023-03-26T02:57:07;99310.81;;;14.11;60.42
77250;BME280;66287;42.658;27.568;2023-03-26T02:59:50;99302.63;;;14.11;60.57
77250;BME280;66287;42.658;27.568;2023-03-26T03:02:40;99305.94;;;14.13;59.94
77250;BME280;66287;42.658;27.568;2023-03-26T03:05:23;99308.41;;;14.14;60.17
77250;BME280;66287;42.658;27.568;2023-03-26T03:07:59;99314.69;;;14.15;60.29
77250;BME280;66287;42.658;27.568;2023-03-26T03:10:27;99300.56;;;14.18;60.10
77250;BME280;66287;42.658;27.568;2023-03-26T03:13:06;99300.28;;;14.20;59.79
77250;BME280;66287;42.658;27.568;2023-03-26T03:15:32;99310.13;;;14.21;59.35
77250;BME280;66287;42.658;27.568;2023-03-26T03:17:59;99313.69;;;14.21;59.49
77250;BME280;66287;42.658;27.568;2023-03-26T03:20:27;99309.06;;;14.22;59.67
77250;BME280;66287;42.658;27.568;2023-03-26T03:22:54;99307.97;;;14.23;59.64
77250;BME280;66287;42.658;27.568;2023-03-26T03:25:21;99306.91;;;14.24;59.57
77250;BME280;66287;42.658;27.568;2023-03-26T03:27:47;99302.28;;;14.24;59.61
77250;BME280;66287;42.658;27.568;2023-03-26T03:30:13;99301.47;;;14.24;59.16
77250;BME280;66287;42.658;27.568;2023-03-26T03:32:39;99297.66;;;14.25;59.54
77250;BME280;66287;42.658;27.568;2023-03-26T03:35:05;99300.38;;;14.25;59.34
77250;BME280;66287;42.658;27.568;2023-03-26T03:37:31;99298.72;;;14.24;59.23
77250;BME280;66287;42.658;27.568;2023-03-26T03:39:57;99305.00;;;14.24;58.95
77250;BME280;66287;42.658;27.568;2023-03-26T03:42:25;99307.16;;;14.22;59.35
77250;BME280;66287;42.658;27.568;2023-03-26T03:44:54;99309.06;;;14.22;59.25
77250;BME280;66287;42.658;27.568;2023-03-26T03:47:45;99302.78;;;14.21;59.22
77250;BME280;66287;42.658;27.568;2023-03-26T03:50:13;99309.31;;;14.20;59.60
77250;BME280;66287;42.658;27.568;2023-03-26T03:52:48;99307.41;;;14.21;59.34
77250;BME280;66287;42.658;27.568;2023-03-26T03:55:15;99318.31;;;14.21;59.06
77250;BME280;66287;42.658;27.568;2023-03-26T03:57:46;99314.75;;;14.20;59.60
77250;BME280;66287;42.658;27.568;2023-03-26T04:00:16;99311.19;;;14.20;59.61
77250;BME280;66287;42.658;27.568;2023-03-26T04:02:45;99314.75;;;14.20;59.58
77250;BME280;66287;42.658;27.568;2023-03-26T04:05:11;99328.94;;;14.22;59.44
77250;BME280;66287;42.658;27.568;2023-03-26T04:07:43;99341.50;;;14.23;60.23
77250;BME280;66287;42.658;27.568;2023-03-26T04:10:29;99334.41;;;14.22;59.33
77250;BME280;66287;42.658;27.568;2023-03-26T04:13:33;99334.16;;;14.24;59.58
77250;BME280;66287;42.658;27.568;2023-03-26T04:16:12;99336.88;;;14.24;59.96
77250;BME280;66287;42.658;27.568;2023-03-26T04:18:38;99356.78;;;14.24;59.72
77250;BME280;66287;42.658;27.568;2023-03-26T04:21:10;99370.66;;;14.23;59.06
77250;BME280;66287;42.658;27.568;2023-03-26T04:23:37;99383.22;;;14.24;59.55
77250;BME280;66287;42.658;27.568;2023-03-26T04:26:17;99376.09;;;14.23;59.45
77250;BME280;66287;42.658;27.568;2023-03-26T04:29:09;99383.47;;;14.22;59.12
77250;BME280;66287;42.658;27.568;2023-03-26T04:31:37;99396.19;;;14.17;59.13
77250;BME280;66287;42.658;27.568;2023-03-26T04:34:07;99395.13;;;14.18;59.49
77250;BME280;66287;42.658;27.568;2023-03-26T04:36:47;99398.09;;;14.16;59.43
77250;BME280;66287;42.658;27.568;2023-03-26T04:39:15;99396.19;;;14.17;59.42
77250;BME280;66287;42.658;27.568;2023-03-26T04:42:12;99405.44;;;14.16;60.05
77250;BME280;66287;42.658;27.568;2023-03-26T04:44:51;99398.34;;;14.14;59.69
77250;BME280;66287;42.658;27.568;2023-03-26T04:47:17;99411.88;;;14.09;60.53
77250;BME280;66287;42.658;27.568;2023-03-26T04:49:44;99418.63;;;14.07;60.32
77250;BME280;66287;42.658;27.568;2023-03-26T04:52:13;99422.06;;;14.02;59.80
77250;BME280;66287;42.658;27.568;2023-03-26T04:54:57;99424.72;;;13.97;60.89
77250;BME280;66287;42.658;27.568;2023-03-26T04:57:26;99436.94;;;13.95;60.87
77250;BME280;66287;42.658;27.568;2023-03-26T05:00:00;99433.03;;;13.91;60.43
77250;BME280;66287;42.658;27.568;2023-03-26T05:02:42;99434.94;;;13.90;60.87
77250;BME280;66287;42.658;27.568;2023-03-26T05:05:08;99415.63;;;13.92;61.30
77250;BME280;66287;42.658;27.568;2023-03-26T05:07:34;99443.69;;;13.92;60.76
77250;BME280;66287;42.658;27.568;2023-03-26T05:10:01;99453.75;;;13.92;61.12
77250;BME280;66287;42.658;27.568;2023-03-26T05:12:57;99455.91;;;13.90;61.90
77250;BME280;66287;42.658;27.568;2023-03-26T05:15:29;99462.88;;;13.86;61.72
77250;BME280;66287;42.658;27.568;2023-03-26T05:18:05;99460.41;;;13.84;61.62
77250;BME280;66287;42.658;27.568;2023-03-26T05:20:37;99455.78;;;13.85;61.39
77250;BME280;66287;42.658;27.568;2023-03-26T05:23:05;99458.03;;;13.88;61.48
77250;BME280;66287;42.658;27.568;2023-03-26T05:25:34;99462.41;;;13.89;61.62
77250;BME280;66287;42.658;27.568;2023-03-26T05:28:02;99458.84;;;13.88;61.97
77250;BME280;66287;42.658;27.568;2023-03-26T05:30:37;99439.31;;;13.91;62.17
77250;BME280;66287;42.658;27.568;2023-03-26T05:33:03;99410.75;;;13.94;61.37
77250;BME280;66287;42.658;27.568;2023-03-26T05:35:37;99426.28;;;13.93;61.75
77250;BME280;66287;42.658;27.568;2023-03-26T05:38:05;99438.47;;;13.91;61.88
77250;BME280;66287;42.658;27.568;2023-03-26T05:40:30;99425.44;;;13.93;61.52
77250;BME280;66287;42.658;27.568;2023-03-26T05:42:58;99426.88;;;13.95;61.59
77250;BME280;66287;42.658;27.568;2023-03-26T05:45:31;99447.59;;;13.96;61.85
77250;BME280;66287;42.658;27.568;2023-03-26T05:48:01;99450.22;;;13.91;61.21
77250;BME280;66287;42.658;27.568;2023-03-26T05:50:26;99477.78;;;13.95;62.03
77250;BME280;66287;42.658;27.568;2023-03-26T05:52:57;99487.03;;;13.94;61.55
77250;BME280;66287;42.658;27.568;2023-03-26T05:55:46;99480.31;;;13.85;61.70
77250;BME280;66287;42.658;27.568;2023-03-26T05:58:34;99472.97;;;13.85;62.57
77250;BME280;66287;42.658;27.568;2023-03-26T06:01:19;99446.44;;;13.80;62.27
77250;BME280;66287;42.658;27.568;2023-03-26T06:04:03;99435.16;;;13.89;62.24
77250;BME280;66287;42.658;27.568;2023-03-26T06:06:34;99435.09;;;14.00;61.86
77250;BME280;66287;42.658;27.568;2023-03-26T06:08:59;99445.16;;;14.11;61.92
77250;BME280;66287;42.658;27.568;2023-03-26T06:11:26;99449.69;;;14.23;61.36
77250;BME280;66287;42.658;27.568;2023-03-26T06:13:51;99455.34;;;14.33;60.83
77250;BME280;66287;42.658;27.568;2023-03-26T06:16:17;99457.34;;;14.37;60.04
77250;BME280;66287;42.658;27.568;2023-03-26T06:18:53;99441.91;;;14.43;60.51
77250;BME280;66287;42.658;27.568;2023-03-26T06:21:30;99444.25;;;14.51;60.11
77250;BME280;66287;42.658;27.568;2023-03-26T06:24:18;99448.13;;;14.55;60.00
77250;BME280;66287;42.658;27.568;2023-03-26T06:27:02;99450.09;;;14.60;59.63
77250;BME280;66287;42.658;27.568;2023-03-26T06:29:28;99451.00;;;14.65;59.42
77250;BME280;66287;42.658;27.568;2023-03-26T06:32:08;99448.94;;;14.72;59.50
77250;BME280;66287;42.658;27.568;2023-03-26T06:34:41;99433.81;;;14.81;59.24
77250;BME280;66287;42.658;27.568;2023-03-26T06:37:07;99437.34;;;14.99;59.17
77250;BME280;66287;42.658;27.568;2023-03-26T06:39:33;99440.06;;;15.15;59.00
77250;BME280;66287;42.658;27.568;2023-03-26T06:42:19;99438.13;;;15.33;58.93
77250;BME280;66287;42.658;27.568;2023-03-26T06:45:05;99438.97;;;15.55;58.99
77250;BME280;66287;42.658;27.568;2023-03-26T06:47:33;99438.16;;;15.76;58.66
77250;BME280;66287;42.658;27.568;2023-03-26T06:50:19;99451.78;;;15.98;58.27
77250;BME280;66287;42.658;27.568;2023-03-26T06:53:11;99449.22;;;16.13;58.19
77250;BME280;66287;42.658;27.568;2023-03-26T06:55:49;99458.09;;;16.26;57.72
77250;BME280;66287;42.658;27.568;2023-03-26T06:58:19;99468.00;;;16.32;57.67
77250;BME280;66287;42.658;27.568;2023-03-26T07:01:03;99468.56;;;16.34;57.54
77250;BME280;66287;42.658;27.568;2023-03-26T07:03:48;99467.47;;;16.35;57.54
77250;BME280;66287;42.658;27.568;2023-03-26T07:06:32;99471.63;;;16.37;57.69
77250;BME280;66287;42.658;27.568;2023-03-26T07:09:16;99471.91;;;16.41;57.75
77250;BME280;66287;42.658;27.568;2023-03-26T07:12:00;99471.13;;;16.45;57.42
77250;BME280;66287;42.658;27.568;2023-03-26T07:14:44;99468.19;;;16.52;57.38
77250;BME280;66287;42.658;27.568;2023-03-26T07:17:34;99470.53;;;16.65;57.58
77250;BME280;66287;42.658;27.568;2023-03-26T07:20:11;99471.66;;;17.06;57.31
77250;BME280;66287;42.658;27.568;2023-03-26T07:22:37;99470.56;;;17.49;56.61
77250;BME280;66287;42.658;27.568;2023-03-26T07:25:02;99476.34;;;18.25;56.18
77250;BME280;66287;42.658;27.568;2023-03-26T07:42:04;99459.31;;;23.25;39.67
77250;BME280;66287;42.658;27.568;2023-03-26T07:47:49;99440.69;;;24.13;38.10
77250;BME280;66287;42.658;27.568;2023-03-26T07:50:37;99446.38;;;24.44;37.75
77250;BME280;66287;42.658;27.568;2023-03-26T07:53:08;99445.09;;;24.00;39.91
77250;BME280;66287;42.658;27.568;2023-03-26T08:07:32;99452.13;;;23.56;41.08
77250;BME280;66287;42.658;27.568;2023-03-26T08:12:54;99418.94;;;24.56;39.46
77250;BME280;66287;42.658;27.568;2023-03-26T08:17:53;99435.41;;;24.97;38.43
77250;BME280;66287;42.658;27.568;2023-03-26T08:23:00;99434.44;;;25.32;33.29
77250;BME280;66287;42.658;27.568;2023-03-26T08:25:32;99426.28;;;25.67;33.52
77250;BME280;66287;42.658;27.568;2023-03-26T08:30:42;99430.19;;;26.31;32.56
77250;BME280;66287;42.658;27.568;2023-03-26T08:35:35;99438.03;;;26.29;32.12
77250;BME280;66287;42.658;27.568;2023-03-26T08:38:07;99436.25;;;26.33;32.09
77250;BME280;66287;42.658;27.568;2023-03-26T08:50:45;99440.34;;;26.96;29.30
77250;BME280;66287;42.658;27.568;2023-03-26T08:55:56;99444.59;;;27.49;29.94
77250;BME280;66287;42.658;27.568;2023-03-26T08:58:38;99453.56;;;27.63;28.15
77250;BME280;66287;42.658;27.568;2023-03-26T09:19:40;99454.09;;;28.16;25.17
77250;BME280;66287;42.658;27.568;2023-03-26T09:33:08;99450.31;;;29.85;24.31
77250;BME280;66287;42.658;27.568;2023-03-26T09:45:59;99446.00;;;29.63;22.41
77250;BME280;66287;42.658;27.568;2023-03-26T10:13:07;99438.56;;;29.79;20.88
77250;BME280;66287;42.658;27.568;2023-03-26T10:15:38;99434.16;;;29.91;21.05
77250;BME280;66287;42.658;27.568;2023-03-26T10:21:06;99432.63;;;29.81;20.16
77250;BME280;66287;42.658;27.568;2023-03-26T10:34:03;99435.53;;;29.48;20.89
77250;BME280;66287;42.658;27.568;2023-03-26T10:36:46;99431.34;;;29.78;21.36
77250;BME280;66287;42.658;27.568;2023-03-26T10:41:52;99436.72;;;29.71;19.94
77250;BME280;66287;42.658;27.568;2023-03-26T10:50:10;99434.41;;;28.41;21.79
77250;BME280;66287;42.658;27.568;2023-03-26T10:52:41;99425.91;;;28.59;21.75
77250;BME280;66287;42.658;27.568;2023-03-26T10:55:15;99433.13;;;29.13;21.19
77250;BME280;66287;42.658;27.568;2023-03-26T11:05:45;99418.09;;;29.51;23.22
77250;BME280;66287;42.658;27.568;2023-03-26T11:08:28;99423.41;;;30.29;22.33
77250;BME280;66287;42.658;27.568;2023-03-26T11:13:46;99429.97;;;29.97;20.80
77250;BME280;66287;42.658;27.568;2023-03-26T11:27:05;99427.63;;;29.62;23.08
77250;BME280;66287;42.658;27.568;2023-03-26T11:34:28;99421.13;;;30.87;20.25
77250;BME280;66287;42.658;27.568;2023-03-26T11:36:56;99412.03;;;30.90;19.89
77250;BME280;66287;42.658;27.568;2023-03-26T11:39:24;99404.16;;;31.24;19.44
77250;BME280;66287;42.658;27.568;2023-03-26T11:41:51;99405.16;;;31.47;19.11
77250;BME280;66287;42.658;27.568;2023-03-26T11:44:28;99404.78;;;31.80;19.43
77250;BME280;66287;42.658;27.568;2023-03-26T11:46:57;99402.50;;;32.36;18.53
77250;BME280;66287;42.658;27.568;2023-03-26T11:49:25;99401.72;;;31.69;18.04
77250;BME280;66287;42.658;27.568;2023-03-26T11:51:52;99406.94;;;30.80;20.29
77250;BME280;66287;42.658;27.568;2023-03-26T11:54:17;99400.19;;;29.76;19.70
77250;BME280;66287;42.658;27.568;2023-03-26T11:59:30;99397.94;;;30.06;20.00
77250;BME280;66287;42.658;27.568;2023-03-26T12:02:15;99404.16;;;31.55;19.87
77250;BME280;66287;42.658;27.568;2023-03-26T12:04:44;99400.56;;;30.95;18.25
77250;BME280;66287;42.658;27.568;2023-03-26T12:07:16;99412.47;;;30.24;20.15
77250;BME280;66287;42.658;27.568;2023-03-26T12:09:48;99398.50;;;29.39;20.48
77250;BME280;66287;42.658;27.568;2023-03-26T12:12:18;99406.56;;;28.95;21.45
77250;BME280;66287;42.658;27.568;2023-03-26T12:14:43;99405.22;;;28.60;20.81
77250;BME280;66287;42.658;27.568;2023-03-26T12:17:13;99401.97;;;28.16;20.70
77250;BME280;66287;42.658;27.568;2023-03-26T12:19:48;99395.84;;;28.02;22.18
77250;BME280;66287;42.658;27.568;2023-03-26T12:22:26;99399.41;;;27.82;22.65
77250;BME280;66287;42.658;27.568;2023-03-26T12:25:07;99402.91;;;27.99;22.12
77250;BME280;66287;42.658;27.568;2023-03-26T12:27:39;99404.44;;;28.38;21.85
77250;BME280;66287;42.658;27.568;2023-03-26T12:30:11;99397.28;;;28.08;21.30
77250;BME280;66287;42.658;27.568;2023-03-26T12:32:44;99400.34;;;28.15;22.41
77250;BME280;66287;42.658;27.568;2023-03-26T12:35:13;99404.56;;;28.21;22.16
77250;BME280;66287;42.658;27.568;2023-03-26T12:37:43;99399.22;;;28.37;21.34
77250;BME280;66287;42.658;27.568;2023-03-26T12:42:50;99385.34;;;27.99;21.46
77250;BME280;66287;42.658;27.568;2023-03-26T12:45:22;99383.19;;;28.67;21.02
77250;BME280;66287;42.658;27.568;2023-03-26T12:47:47;99382.91;;;28.80;21.58
77250;BME280;66287;42.658;27.568;2023-03-26T12:50:14;99381.75;;;30.00;19.98
77250;BME280;66287;42.658;27.568;2023-03-26T13:11:19;99376.63;;;28.09;20.32
77250;BME280;66287;42.658;27.568;2023-03-26T13:33:44;99373.25;;;29.96;18.19
77250;BME280;66287;42.658;27.568;2023-03-26T13:36:17;99371.53;;;29.92;17.11
77250;BME280;66287;42.658;27.568;2023-03-26T13:44:27;99377.81;;;29.40;18.08
77250;BME280;66287;42.658;27.568;2023-03-26T13:47:17;99370.94;;;28.80;19.33
77250;BME280;66287;42.658;27.568;2023-03-26T13:49:48;99364.94;;;28.16;19.72
77250;BME280;66287;42.658;27.568;2023-03-26T13:52:20;99364.31;;;27.60;20.48
77250;BME280;66287;42.658;27.568;2023-03-26T13:55:24;99362.16;;;27.95;19.48
77250;BME280;66287;42.658;27.568;2023-03-26T13:57:42;99361.63;;;27.72;19.99
77250;BME280;66287;42.658;27.568;2023-03-26T14:00:12;99363.78;;;27.66;19.98
77250;BME280;66287;42.658;27.568;2023-03-26T14:02:46;99359.56;;;27.90;19.98
77250;BME280;66287;42.658;27.568;2023-03-26T14:10:46;99359.69;;;30.23;17.46
77250;BME280;66287;42.658;27.568;2023-03-26T14:13:24;99369.38;;;30.53;17.87
77250;BME280;66287;42.658;27.568;2023-03-26T14:16:01;99367.13;;;30.71;16.94
77250;BME280;66287;42.658;27.568;2023-03-26T14:41:38;99388.34;;;29.22;22.93
77250;BME280;66287;42.658;27.568;2023-03-26T14:52:07;99409.69;;;27.05;27.38
77250;BME280;66287;42.658;27.568;2023-03-26T14:54:36;99414.50;;;26.96;27.77
77250;BME280;66287;42.658;27.568;2023-03-26T15:04:50;99430.84;;;26.97;27.31
77250;BME280;66287;42.658;27.568;2023-03-26T15:26:35;99449.19;;;27.45;27.26
77250;BME280;66287;42.658;27.568;2023-03-26T15:44:56;99456.34;;;24.67;31.26
77250;BME280;66287;42.658;27.568;2023-03-26T15:52:55;99463.66;;;23.99;32.84
77250;BME280;66287;42.658;27.568;2023-03-26T15:57:57;99480.59;;;24.12;32.83
77250;BME280;66287;42.658;27.568;2023-03-26T16:00:27;99480.78;;;24.15;33.02
77250;BME280;66287;42.658;27.568;2023-03-26T16:10:58;99504.56;;;23.61;33.74
77250;BME280;66287;42.658;27.568;2023-03-26T16:15:53;99497.19;;;23.11;34.72
77250;BME280;66287;42.658;27.568;2023-03-26T16:18:27;99496.25;;;22.83;35.40
77250;BME280;66287;42.658;27.568;2023-03-26T16:21:22;99511.09;;;22.68;35.66
77250;BME280;66287;42.658;27.568;2023-03-26T16:26:15;99491.00;;;22.62;35.78
77250;BME280;66287;42.658;27.568;2023-03-26T16:33:38;99498.88;;;22.37;36.24
77250;BME280;66287;42.658;27.568;2023-03-26T16:49:19;99504.22;;;21.80;37.16
77250;BME280;66287;42.658;27.568;2023-03-26T16:52:04;99496.44;;;21.63;37.36
77250;BME280;66287;42.658;27.568;2023-03-26T16:54:46;99503.59;;;21.64;37.40
77250;BME280;66287;42.658;27.568;2023-03-26T17:04:37;99508.16;;;21.50;37.22
77250;BME280;66287;42.658;27.568;2023-03-26T17:20:43;99531.81;;;20.93;38.09
77250;BME280;66287;42.658;27.568;2023-03-26T17:23:08;99538.75;;;20.86;38.30
77250;BME280;66287;42.658;27.568;2023-03-26T17:25:43;99534.69;;;20.78;38.40
77250;BME280;66287;42.658;27.568;2023-03-26T17:33:33;99536.22;;;20.50;38.70
77250;BME280;66287;42.658;27.568;2023-03-26T17:41:08;99549.88;;;20.16;39.00
77250;BME280;66287;42.658;27.568;2023-03-26T17:43:49;99549.34;;;19.99;39.44
77250;BME280;66287;42.658;27.568;2023-03-26T17:49:03;99566.75;;;19.84;39.75
77250;BME280;66287;42.658;27.568;2023-03-26T17:51:35;99573.66;;;19.77;39.81
77250;BME280;66287;42.658;27.568;2023-03-26T17:54:26;99578.88;;;19.68;40.02
77250;BME280;66287;42.658;27.568;2023-03-26T17:56:50;99580.53;;;19.59;39.78
77250;BME280;66287;42.658;27.568;2023-03-26T17:59:20;99581.63;;;19.43;40.45
77250;BME280;66287;42.658;27.568;2023-03-26T18:01:49;99581.09;;;19.36;40.50
77250;BME280;66287;42.658;27.568;2023-03-26T18:04:35;99580.00;;;19.26;40.51
77250;BME280;66287;42.658;27.568;2023-03-26T18:07:09;99581.94;;;19.16;40.63
77250;BME280;66287;42.658;27.568;2023-03-26T18:17:20;99592.84;;;18.80;41.22
77250;BME280;66287;42.658;27.568;2023-03-26T18:19:50;99593.66;;;18.66;41.50
77250;BME280;66287;42.658;27.568;2023-03-26T18:22:23;99595.78;;;18.53;41.90
77250;BME280;66287;42.658;27.568;2023-03-26T18:24:49;99601.75;;;18.40;41.96
77250;BME280;66287;42.658;27.568;2023-03-26T18:27:19;99589.97;;;18.40;42.11
77250;BME280;66287;42.658;27.568;2023-03-26T18:32:21;99596.22;;;18.25;42.17
77250;BME280;66287;42.658;27.568;2023-03-26T18:34:53;99595.94;;;18.21;42.27
77250;BME280;66287;42.658;27.568;2023-03-26T18:37:31;99591.78;;;18.09;42.38
77250;BME280;66287;42.658;27.568;2023-03-26T18:40:08;99590.88;;;17.93;42.81
77250;BME280;66287;42.658;27.568;2023-03-26T18:42:39;99593.31;;;17.89;42.71
77250;BME280;66287;42.658;27.568;2023-03-26T18:45:06;99591.38;;;17.85;42.92
77250;BME280;66287;42.658;27.568;2023-03-26T18:47:33;99592.72;;;17.82;42.99
77250;BME280;66287;42.658;27.568;2023-03-26T18:50:00;99593.75;;;17.71;43.12
77250;BME280;66287;42.658;27.568;2023-03-26T18:52:27;99587.59;;;17.59;43.31
77250;BME280;66287;42.658;27.568;2023-03-26T18:54:54;99572.28;;;17.58;43.37
77250;BME280;66287;42.658;27.568;2023-03-26T18:57:22;99570.59;;;17.52;43.42
77250;BME280;66287;42.658;27.568;2023-03-26T18:59:50;99566.66;;;17.38;43.45
77250;BME280;66287;42.658;27.568;2023-03-26T19:02:16;99561.97;;;17.33;43.70
77250;BME280;66287;42.658;27.568;2023-03-26T19:04:42;99573.69;;;17.29;43.82
77250;BME280;66287;42.658;27.568;2023-03-26T19:07:10;99571.69;;;17.19;44.08
77250;BME280;66287;42.658;27.568;2023-03-26T19:09:38;99574.41;;;17.14;44.04
77250;BME280;66287;42.658;27.568;2023-03-26T19:12:06;99575.66;;;17.01;44.40
77250;BME280;66287;42.658;27.568;2023-03-26T19:14:31;99564.41;;;16.98;44.46
77250;BME280;66287;42.658;27.568;2023-03-26T19:17:01;99570.41;;;16.95;44.35
77250;BME280;66287;42.658;27.568;2023-03-26T19:19:34;99570.09;;;16.91;44.65
77250;BME280;66287;42.658;27.568;2023-03-26T19:22:04;99568.03;;;16.76;44.81
77250;BME280;66287;42.658;27.568;2023-03-26T19:24:30;99565.88;;;16.78;44.80
77250;BME280;66287;42.658;27.568;2023-03-26T19:26:55;99567.72;;;16.73;45.14
77250;BME280;66287;42.658;27.568;2023-03-26T19:29:26;99562.97;;;16.63;45.16
77250;BME280;66287;42.658;27.568;2023-03-26T19:31:52;99566.66;;;16.52;45.40
77250;BME280;66287;42.658;27.568;2023-03-26T19:34:30;99574.88;;;16.52;45.60
77250;BME280;66287;42.658;27.568;2023-03-26T19:36:59;99584.66;;;16.48;45.52
77250;BME280;66287;42.658;27.568;2023-03-26T19:39:39;99575.94;;;16.51;45.44
77250;BME280;66287;42.658;27.568;2023-03-26T19:42:05;99586.75;;;16.41;45.82
77250;BME280;66287;42.658;27.568;2023-03-26T19:44:31;99584.25;;;16.34;45.96
77250;BME280;66287;42.658;27.568;2023-03-26T19:47:01;99576.47;;;16.26;46.02
77250;BME280;66287;42.658;27.568;2023-03-26T19:49:30;99570.13;;;16.20;46.16
77250;BME280;66287;42.658;27.568;2023-03-26T19:52:03;99561.06;;;16.15;46.00